Time;durP1;ratioP1;P1;durP2;ratioP2;P2;SDS_P1;SDS_P2;PMS_P1;PMS_P2;Temp;Humidity;BMP_temperature;BMP_pressure;BME280_temperature;BME280_humidity;BME280_pressure;Samples;Min_cycle;Max_cycle;Signal;HPM_P1;HPM_P2
2023/06/16 00:01:36;;;;;;;11.47;10.50;;;;;;;17.06;100.00;101751.59;5001881;28;20489;-43
2023/06/16 00:04:06;;;;;;;13.03;11.40;;;;;;;17.09;100.00;101756.56;5001608;28;20449;-43
2023/06/16 00:06:33;;;;;;;13.43;12.10;;;;;;;17.11;100.00;101749.06;5001518;28;20469;-43
2023/06/16 00:09:01;;;;;;;12.30;11.13;;;;;;;17.13;100.00;101756.94;5001263;28;20470;-46
2023/06/16 00:11:30;;;;;;;14.43;12.60;;;;;;;17.14;100.00;101755.91;5001291;28;20487;-43
2023/06/16 00:13:58;;;;;;;12.00;11.00;;;;;;;17.17;100.00;101761.69;5001641;28;21015;-43
2023/06/16 00:16:26;;;;;;;13.10;11.77;;;;;;;17.20;100.00;101755.06;5001064;28;20441;-43
2023/06/16 00:18:57;;;;;;;11.07;10.07;;;;;;;17.23;100.00;101759.19;4999910;28;20465;-43
2023/06/16 00:21:29;;;;;;;13.60;11.77;;;;;;;17.18;100.00;101754.44;5001324;28;20421;-42
2023/06/16 00:23:57;;;;;;;12.50;11.60;;;;;;;17.14;100.00;101748.63;5001338;28;20940;-47
2023/06/16 00:26:26;;;;;;;13.00;11.70;;;;;;;17.08;100.00;101756.78;5001616;28;20568;-43
2023/06/16 00:28:54;;;;;;;12.90;11.70;;;;;;;17.04;100.00;101761.78;5000785;28;20469;-44
2023/06/16 00:31:22;;;;;;;13.00;11.80;;;;;;;16.97;100.00;101762.81;5001108;28;20450;-43
2023/06/16 00:33:49;;;;;;;13.50;12.00;;;;;;;16.89;100.00;101760.38;5001025;28;20441;-43
2023/06/16 00:36:17;;;;;;;13.30;12.20;;;;;;;16.78;100.00;101747.56;5001465;28;20511;-43
2023/06/16 00:38:46;;;;;;;12.77;11.67;;;;;;;16.75;100.00;101748.00;5001617;28;20492;-43
2023/06/16 00:41:14;;;;;;;13.33;12.13;;;;;;;16.83;100.00;101747.75;5000870;28;20434;-43
2023/06/16 00:43:43;;;;;;;13.70;12.60;;;;;;;16.86;100.00;101747.34;5001438;28;20434;-46
2023/06/16 00:46:21;;;;;;;13.30;12.17;;;;;;;16.84;100.00;101742.16;5001236;28;20477;-42
2023/06/16 00:48:49;;;;;;;14.17;12.93;;;;;;;16.77;100.00;101733.28;4983800;28;20980;-43
2023/06/16 00:51:17;;;;;;;15.33;14.10;;;;;;;16.69;100.00;101721.91;4981826;28;20427;-43
2023/06/16 00:53:47;;;;;;;16.20;14.67;;;;;;;16.67;100.00;101721.28;4981677;28;20450;-43
2023/06/16 00:56:16;;;;;;;14.83;13.17;;;;;;;16.68;100.00;101720.25;4981368;28;20442;-42
2023/06/16 00:58:44;;;;;;;13.67;12.20;;;;;;;16.76;100.00;101715.44;4981135;28;20510;-43
2023/06/16 01:01:12;;;;;;;14.57;13.37;;;;;;;16.70;100.00;101720.84;4981474;28;20908;-44
2023/06/16 01:03:40;;;;;;;18.90;14.20;;;;;;;16.66;100.00;101712.41;4981290;28;20443;-44
2023/06/16 01:06:16;;;;;;;14.87;13.47;;;;;;;16.70;100.00;101710.91;4981646;28;20528;-46
2023/06/16 01:08:51;;;;;;;16.10;14.67;;;;;;;16.70;100.00;101702.84;4980164;28;20470;-44
2023/06/16 01:11:27;;;;;;;14.50;13.33;;;;;;;16.70;100.00;101704.69;4980909;28;20466;-42
2023/06/16 01:14:04;;;;;;;14.13;13.03;;;;;;;16.72;100.00;101700.78;4981541;28;20417;-46
2023/06/16 01:16:32;;;;;;;13.60;12.53;;;;;;;16.74;100.00;101703.25;4981841;28;20470;-42
2023/06/16 01:19:09;;;;;;;15.10;13.70;;;;;;;16.76;100.00;101703.84;4973666;28;20464;-43
2023/06/16 01:21:44;;;;;;;15.30;13.90;;;;;;;16.70;100.00;101699.31;4979373;28;20423;-44
2023/06/16 01:24:16;;;;;;;17.03;15.50;;;;;;;16.63;100.00;101704.75;4980207;28;20438;-43
2023/06/16 01:26:49;;;;;;;18.23;16.50;;;;;;;16.51;100.00;101703.72;4980188;28;20807;-43
2023/06/16 01:29:21;;;;;;;17.93;16.20;;;;;;;16.43;100.00;101699.38;4980402;28;20451;-44
2023/06/16 01:31:52;;;;;;;18.40;16.63;;;;;;;16.33;100.00;101703.56;4979678;28;20438;-47
2023/06/16 01:34:21;;;;;;;18.63;16.93;;;;;;;16.32;100.00;101696.50;4980069;28;20454;-46
2023/06/16 01:36:50;;;;;;;18.40;16.50;;;;;;;16.27;100.00;101701.72;4980039;28;20455;-46
2023/06/16 01:39:21;;;;;;;19.70;17.43;;;;;;;16.22;100.00;101698.84;4979540;28;20461;-43
2023/06/16 01:41:49;;;;;;;19.20;17.27;;;;;;;16.10;100.00;101706.69;4979824;28;20435;-43
2023/06/16 01:44:18;;;;;;;18.47;16.87;;;;;;;16.09;100.00;101710.44;4979164;28;20482;-44
2023/06/16 01:46:48;;;;;;;19.80;17.13;;;;;;;16.08;100.00;101707.94;4979538;28;20471;-42
2023/06/16 01:49:16;;;;;;;18.30;16.50;;;;;;;15.98;100.00;101711.06;4980250;28;20451;-43
2023/06/16 01:51:44;;;;;;;18.63;16.80;;;;;;;15.99;100.00;101710.88;4980173;28;20431;-46
2023/06/16 01:54:12;;;;;;;19.13;17.37;;;;;;;16.03;100.00;101706.72;4980766;28;20449;-45
2023/06/16 01:56:41;;;;;;;18.77;16.93;;;;;;;16.04;100.00;101702.97;4980761;28;20462;-47
2023/06/16 01:59:08;;;;;;;18.90;17.10;;;;;;;16.08;100.00;101697.19;4979876;28;20477;-43
2023/06/16 02:01:40;;;;;;;18.77;16.97;;;;;;;16.05;100.00;101696.56;4979925;28;20445;-43
2023/06/16 02:04:12;;;;;;;20.77;18.70;;;;;;;16.05;100.00;101693.88;4979938;28;20439;-43
2023/06/16 02:06:44;;;;;;;21.50;19.33;;;;;;;16.04;100.00;101684.16;4980861;28;20489;-46
2023/06/16 02:09:14;;;;;;;19.43;17.73;;;;;;;16.05;100.00;101684.97;4980471;28;20463;-43
2023/06/16 02:11:44;;;;;;;18.23;16.63;;;;;;;16.04;100.00;101681.47;4980234;28;20435;-45
2023/06/16 02:14:12;;;;;;;19.23;17.30;;;;;;;16.01;100.00;101689.94;4980122;28;20450;-43
2023/06/16 02:16:42;;;;;;;20.53;18.60;;;;;;;16.01;100.00;101684.56;4980694;28;20465;-43
2023/06/16 02:19:11;;;;;;;20.30;18.50;;;;;;;15.99;100.00;101688.50;4972121;28;20478;-45
2023/06/16 02:21:41;;;;;;;23.03;20.93;;;;;;;15.93;100.00;101681.28;4971930;28;20462;-43
2023/06/16 02:24:10;;;;;;;22.40;20.40;;;;;;;15.90;100.00;101677.13;4972185;28;20470;-44
2023/06/16 02:26:38;;;;;;;21.70;19.90;;;;;;;15.92;100.00;101682.28;4972281;28;20513;-46
2023/06/16 02:29:07;;;;;;;22.33;20.03;;;;;;;15.90;100.00;101679.81;4990086;28;20473;-45
2023/06/16 02:31:34;;;;;;;22.57;20.40;;;;;;;15.90;100.00;101684.38;4991475;28;20488;-45
2023/06/16 02:34:02;;;;;;;23.20;21.20;;;;;;;15.86;100.00;101683.16;4991932;28;20438;-46
2023/06/16 02:36:30;;;;;;;22.50;20.50;;;;;;;15.80;100.00;101681.31;4991633;28;20496;-43
2023/06/16 02:38:58;;;;;;;24.30;22.10;;;;;;;15.74;100.00;101688.31;4991491;28;21044;-45
2023/06/16 02:41:26;;;;;;;23.80;21.73;;;;;;;15.67;100.00;101694.75;4993814;28;20503;-44
2023/06/16 02:43:54;;;;;;;25.40;22.83;;;;;;;15.55;100.00;101699.91;4995659;28;20533;-45
2023/06/16 02:46:23;;;;;;;26.67;23.90;;;;;;;15.54;100.00;101706.31;4995368;28;20470;-44
2023/06/16 02:48:51;;;;;;;25.47;23.17;;;;;;;15.45;100.00;101699.44;4993512;28;20927;-45
2023/06/16 02:51:18;;;;;;;27.90;25.47;;;;;;;15.34;100.00;101702.75;4995442;28;20470;-44
2023/06/16 02:53:46;;;;;;;29.13;26.63;;;;;;;15.30;100.00;101701.47;4995462;28;20441;-46
2023/06/16 02:56:14;;;;;;;29.87;26.80;;;;;;;15.26;100.00;101698.38;4995390;28;20465;-44
2023/06/16 02:58:41;;;;;;;31.30;28.37;;;;;;;15.25;100.00;101699.44;4994552;28;20469;-45
2023/06/16 03:01:11;;;;;;;30.50;27.77;;;;;;;15.24;100.00;101699.63;4994752;28;20441;-44
2023/06/16 03:03:40;;;;;;;31.80;28.90;;;;;;;15.20;100.00;101695.69;4994757;28;20453;-47
2023/06/16 03:06:08;;;;;;;33.87;30.47;;;;;;;15.12;100.00;101698.56;4995257;28;20484;-44
2023/06/16 03:08:36;;;;;;;33.27;29.87;;;;;;;15.13;100.00;101694.84;4994630;28;20907;-44
2023/06/16 03:11:04;;;;;;;33.57;30.03;;;;;;;15.08;100.00;101700.84;4995130;28;20484;-46
2023/06/16 03:13:32;;;;;;;34.93;31.63;;;;;;;15.07;100.00;101701.03;4994441;28;20452;-44
2023/06/16 03:16:00;;;;;;;35.60;31.80;;;;;;;15.09;100.00;101691.72;4994873;28;20993;-44
2023/06/16 03:18:28;;;;;;;32.67;29.77;;;;;;;15.16;100.00;101694.44;4992856;28;20478;-44
2023/06/16 03:20:58;;;;;;;33.87;30.93;;;;;;;15.19;100.00;101704.78;4995111;28;20438;-44
2023/06/16 03:23:27;;;;;;;32.23;29.17;;;;;;;15.24;100.00;101702.31;4994855;28;20462;-45
2023/06/16 03:25:55;;;;;;;28.73;26.23;;;;;;;15.31;100.00;101697.78;4995407;28;20959;-43
2023/06/16 03:28:23;;;;;;;31.13;28.43;;;;;;;15.32;100.00;101683.31;4989581;28;20889;-44
2023/06/16 03:30:52;;;;;;;31.23;28.13;;;;;;;15.36;100.00;101677.31;4994548;28;20426;-46
2023/06/16 03:33:20;;;;;;;31.20;28.47;;;;;;;15.44;100.00;101679.00;4994590;28;20446;-47
2023/06/16 03:35:48;;;;;;;34.10;30.93;;;;;;;15.48;100.00;101675.69;4994786;28;20461;-45
2023/06/16 03:38:17;;;;;;;36.17;29.93;;;;;;;15.50;100.00;101670.94;4993751;28;20473;-43
2023/06/16 03:40:44;;;;;;;28.87;26.57;;;;;;;15.53;100.00;101680.44;4994595;28;20464;-45
2023/06/16 03:43:12;;;;;;;28.57;26.10;;;;;;;15.58;100.00;101679.84;4994179;28;20440;-47
2023/06/16 03:45:40;;;;;;;30.57;27.60;;;;;;;15.62;100.00;101679.22;4994475;28;20437;-46
2023/06/16 03:48:08;;;;;;;33.50;30.13;;;;;;;15.64;100.00;101674.47;4993823;28;20469;-44
2023/06/16 03:50:36;;;;;;;33.90;30.80;;;;;;;15.64;100.00;101682.53;4994466;28;20524;-45
2023/06/16 03:53:04;;;;;;;33.53;30.67;;;;;;;15.59;100.00;101671.56;4992681;28;20445;-44
2023/06/16 03:55:36;;;;;;;33.07;29.87;;;;;;;15.60;100.00;101669.69;4994361;28;20538;-43
2023/06/16 03:58:03;;;;;;;35.10;31.90;;;;;;;15.53;100.00;101674.28;4993635;28;20474;-48
2023/06/16 04:00:31;;;;;;;34.27;30.87;;;;;;;15.52;100.00;101676.13;4993485;28;20438;-44
2023/06/16 04:02:59;;;;;;;35.00;31.73;;;;;;;15.54;100.00;101674.03;4993914;28;20492;-45
2023/06/16 04:05:27;;;;;;;36.63;33.07;;;;;;;15.54;100.00;101667.84;4994126;28;21018;-45
2023/06/16 04:07:55;;;;;;;37.60;34.10;;;;;;;15.59;100.00;101670.75;4993197;28;20528;-43
2023/06/16 04:10:23;;;;;;;34.43;31.23;;;;;;;15.63;100.00;101672.81;4994000;28;20852;-44
2023/06/16 04:12:53;;;;;;;37.20;33.77;;;;;;;15.68;100.00;101662.25;4993849;28;20496;-47
2023/06/16 04:15:21;;;;;;;35.63;32.33;;;;;;;15.72;100.00;101665.34;4994093;28;20422;-46
2023/06/16 04:17:49;;;;;;;37.40;33.40;;;;;;;15.79;100.00;101666.19;4991805;28;21002;-44
2023/06/16 04:20:17;;;;;;;35.03;32.07;;;;;;;15.86;100.00;101657.06;4994045;28;20999;-45
2023/06/16 04:22:45;;;;;;;36.13;32.77;;;;;;;16.00;100.00;101660.56;4993495;28;20431;-45
2023/06/16 04:25:13;;;;;;;33.97;31.10;;;;;;;16.15;100.00;101657.66;4993803;28;20481;-43
2023/06/16 04:27:41;;;;;;;31.17;28.47;;;;;;;16.32;100.00;101653.44;4992961;28;20465;-44
2023/06/16 04:30:11;;;;;;;34.97;31.67;;;;;;;16.54;100.00;101634.16;4993375;28;21007;-46
2023/06/16 04:32:40;;;;;;;32.53;29.43;;;;;;;16.70;100.00;101643.59;4993230;28;20438;-45
2023/06/16 04:35:08;;;;;;;30.30;27.80;;;;;;;16.91;100.00;101645.13;4993293;28;20445;-44
2023/06/16 04:37:36;;;;;;;33.27;30.20;;;;;;;17.12;100.00;101658.25;4992968;28;20485;-45
2023/06/16 04:40:08;;;;;;;33.03;30.03;;;;;;;17.26;100.00;101648.22;4993446;28;20434;-43
2023/06/16 04:42:36;;;;;;;30.60;27.97;;;;;;;17.58;100.00;101639.91;4993513;28;20675;-43
2023/06/16 04:45:04;;;;;;;26.50;24.50;;;;;;;17.90;100.00;101637.13;4993374;28;20422;-47
2023/06/16 04:47:35;;;;;;;28.10;25.60;;;;;;;18.15;100.00;101632.50;4990669;28;20521;-44
2023/06/16 04:50:03;;;;;;;28.10;25.70;;;;;;;18.39;100.00;101636.16;4992863;28;20430;-44
2023/06/16 04:52:31;;;;;;;27.47;25.10;;;;;;;18.56;100.00;101626.41;4993163;28;20433;-46
2023/06/16 04:54:59;;;;;;;25.53;23.40;;;;;;;18.62;100.00;101618.22;4993415;28;20461;-44
2023/06/16 04:57:27;;;;;;;25.60;23.30;;;;;;;18.52;100.00;101617.94;4992597;28;20492;-46
2023/06/16 04:59:55;;;;;;;25.33;23.40;;;;;;;18.68;100.00;101613.78;4993203;28;20469;-45
2023/06/16 05:02:22;;;;;;;26.50;24.40;;;;;;;19.20;100.00;101617.59;4992960;28;20943;-44
2023/06/16 05:04:52;;;;;;;22.10;20.20;;;;;;;19.17;100.00;101602.69;4992192;28;20434;-46
2023/06/16 05:07:19;;;;;;;27.50;25.20;;;;;;;19.11;100.00;101591.97;4992507;28;20470;-44
2023/06/16 05:09:47;;;;;;;26.43;24.20;;;;;;;18.95;100.00;101600.72;4993076;28;20480;-44
2023/06/16 05:12:15;;;;;;;27.87;25.50;;;;;;;18.86;100.00;101594.81;4992527;28;20437;-44
2023/06/16 05:14:42;;;;;;;23.47;21.37;;;;;;;18.68;100.00;101602.97;4992854;28;20480;-44
2023/06/16 05:17:10;;;;;;;24.47;22.37;;;;;;;18.62;100.00;101604.72;4991555;28;20527;-45
2023/06/16 05:19:38;;;;;;;21.33;19.43;;;;;;;18.14;100.00;101609.25;4992741;28;20524;-46
2023/06/16 05:22:07;;;;;;;21.63;19.67;;;;;;;17.89;100.00;101612.00;4991973;28;20480;-44
2023/06/16 05:24:35;;;;;;;21.50;19.80;;;;;;;17.62;100.00;101614.13;4992867;28;20429;-47
2023/06/16 05:27:03;;;;;;;22.73;20.90;;;;;;;17.50;100.00;101597.00;4989761;28;20441;-47
2023/06/16 05:29:30;;;;;;;23.70;21.50;;;;;;;17.29;100.00;101607.38;4972326;28;20485;-45
2023/06/16 05:31:58;;;;;;;22.30;20.37;;;;;;;17.19;100.00;101610.53;4972762;28;20435;-45
2023/06/16 05:34:26;;;;;;;24.77;22.67;;;;;;;16.90;100.00;101613.84;4973171;28;20497;-46
2023/06/16 05:36:53;;;;;;;25.10;22.90;;;;;;;16.61;100.00;101612.56;4972090;28;20438;-49
2023/06/16 05:39:22;;;;;;;23.43;21.60;;;;;;;16.54;100.00;101625.25;4972721;28;20518;-47
2023/06/16 05:41:50;;;;;;;25.37;23.10;;;;;;;16.35;100.00;101629.63;4972354;28;20434;-44
2023/06/16 05:44:19;;;;;;;23.00;21.20;;;;;;;16.43;100.00;101632.06;4972598;28;20467;-44
2023/06/16 05:46:48;;;;;;;26.97;24.77;;;;;;;16.67;100.00;101625.16;4972513;28;20470;-43
2023/06/16 05:49:15;;;;;;;25.13;23.00;;;;;;;16.67;100.00;101618.94;4972484;28;20506;-44
2023/06/16 05:51:43;;;;;;;25.00;22.97;;;;;;;16.66;100.00;101620.84;4972536;28;20434;-44
2023/06/16 05:54:11;;;;;;;24.50;22.50;;;;;;;16.79;100.00;101619.91;4972700;28;20438;-43
2023/06/16 05:56:40;;;;;;;24.60;22.53;;;;;;;16.99;100.00;101617.94;4972678;28;20435;-44
2023/06/16 05:59:07;;;;;;;24.50;22.60;;;;;;;17.28;100.00;101606.53;4991331;28;21003;-47
2023/06/16 06:01:35;;;;;;;24.03;22.10;;;;;;;17.49;100.00;101603.44;4991775;28;20476;-45
2023/06/16 06:04:03;;;;;;;23.93;21.87;;;;;;;17.72;100.00;101597.44;4991797;28;21489;-44
2023/06/16 06:06:31;;;;;;;24.83;22.63;;;;;;;17.60;100.00;101610.00;4992091;28;20472;-44
2023/06/16 06:08:58;;;;;;;23.07;21.07;;;;;;;18.12;100.00;101592.47;4973669;28;21054;-44
2023/06/16 06:11:26;;;;;;;19.53;18.03;;;;;;;19.00;100.00;101604.38;4971626;28;20434;-44
2023/06/16 06:13:55;;;;;;;22.10;20.20;;;;;;;19.04;100.00;101593.94;4972610;28;20501;-46
2023/06/16 06:16:23;;;;;;;20.10;18.67;;;;;;;18.63;100.00;101592.03;4971771;28;20929;-44
2023/06/16 06:18:51;;;;;;;22.10;20.40;;;;;;;18.60;100.00;101600.59;4969591;28;20565;-46
2023/06/16 06:21:19;;;;;;;22.03;19.93;;;;;;;18.69;100.00;101600.06;4972495;28;20465;-47
2023/06/16 06:23:47;;;;;;;22.57;20.87;;;;;;;18.56;100.00;101594.00;4971852;28;20464;-49
2023/06/16 06:26:15;;;;;;;23.47;21.67;;;;;;;18.36;100.00;101604.22;4972409;28;20444;-44
2023/06/16 06:28:43;;;;;;;25.40;22.77;;;;;;;18.28;100.00;101602.63;4982630;28;20470;-46
2023/06/16 06:31:12;;;;;;;23.80;21.80;;;;;;;18.14;100.00;101596.56;4991431;28;21003;-44
2023/06/16 06:33:40;;;;;;;23.70;21.67;;;;;;;18.43;100.00;101599.56;4991459;28;20445;-52
2023/06/16 06:36:08;;;;;;;24.70;22.60;;;;;;;18.72;100.00;101602.31;4991669;28;20479;-44
2023/06/16 06:38:36;;;;;;;25.47;23.17;;;;;;;18.64;100.00;101596.38;4991235;28;20468;-47
2023/06/16 06:41:05;;;;;;;24.43;22.30;;;;;;;18.79;100.00;101596.78;4991397;28;20480;-44
2023/06/16 06:43:32;;;;;;;24.57;22.07;;;;;;;18.96;100.00;101600.50;4991322;28;20440;-44
2023/06/16 06:46:00;;;;;;;21.37;19.50;;;;;;;19.29;100.00;101598.09;4991767;28;20437;-45
2023/06/16 06:48:30;;;;;;;24.30;21.90;;;;;;;19.35;100.00;101596.34;4990950;28;20481;-45
2023/06/16 06:50:58;;;;;;;21.30;19.60;;;;;;;20.16;100.00;101587.38;4991976;28;20804;-48
2023/06/16 06:53:26;;;;;;;20.87;19.07;;;;;;;20.79;100.00;101581.84;4991849;28;20441;-44
2023/06/16 06:55:53;;;;;;;19.03;17.43;;;;;;;21.44;100.00;101583.00;4992233;28;20537;-48
2023/06/16 06:58:21;;;;;;;20.43;18.40;;;;;;;21.94;100.00;101582.94;4991635;28;20500;-43
2023/06/16 07:00:49;;;;;;;19.33;17.77;;;;;;;22.77;100.00;101584.50;4992128;28;20461;-45
2023/06/16 07:03:17;;;;;;;18.83;17.33;;;;;;;22.84;100.00;101589.72;4991899;28;20421;-45
2023/06/16 07:05:46;;;;;;;20.33;18.53;;;;;;;22.85;100.00;101580.50;4992267;28;20532;-47
2023/06/16 07:08:14;;;;;;;20.67;18.80;;;;;;;22.35;100.00;101586.16;4991420;28;20520;-46
2023/06/16 07:10:42;;;;;;;20.20;18.40;;;;;;;21.66;100.00;101593.91;4991880;28;20947;-44
2023/06/16 07:13:10;;;;;;;20.10;18.23;;;;;;;21.04;100.00;101604.00;4991924;28;20862;-48
2023/06/16 07:15:38;;;;;;;19.70;18.10;;;;;;;20.62;100.00;101622.47;4991881;28;20473;-47
2023/06/16 07:18:05;;;;;;;19.77;18.03;;;;;;;20.54;100.00;101631.00;4991289;28;20843;-47
2023/06/16 07:20:33;;;;;;;19.00;17.30;;;;;;;20.59;100.00;101631.09;4991980;28;20469;-45
2023/06/16 07:23:02;;;;;;;20.20;18.50;;;;;;;20.68;100.00;101643.19;4991564;28;20433;-45
2023/06/16 07:25:32;;;;;;;21.37;19.30;;;;;;;20.93;100.00;101642.88;4991815;28;20484;-48
2023/06/16 07:28:00;;;;;;;19.70;17.90;;;;;;;20.90;100.00;101646.88;4994314;28;20500;-46
2023/06/16 07:30:28;;;;;;;20.10;18.23;;;;;;;21.02;100.00;101651.44;4995169;28;20473;-50
2023/06/16 07:32:56;;;;;;;19.20;17.47;;;;;;;21.18;100.00;101640.63;4995436;28;20533;-45
2023/06/16 07:35:23;;;;;;;19.97;18.10;;;;;;;21.17;100.00;101630.84;4995250;28;20505;-46
2023/06/16 07:37:51;;;;;;;19.47;17.80;;;;;;;21.19;100.00;101630.59;4994853;28;20472;-45
2023/06/16 07:40:21;;;;;;;20.80;18.70;;;;;;;21.38;100.00;101622.00;4995359;28;20433;-45
2023/06/16 07:42:49;;;;;;;20.30;18.50;;;;;;;21.59;100.00;101622.31;4994785;28;20457;-45
2023/06/16 07:45:17;;;;;;;19.47;17.67;;;;;;;21.85;100.00;101629.75;4994919;28;20939;-47
2023/06/16 07:47:46;;;;;;;18.37;16.77;;;;;;;22.19;100.00;101623.19;4994558;28;20484;-45
2023/06/16 07:50:14;;;;;;;19.97;18.20;;;;;;;22.63;100.00;101612.31;4994816;28;21210;-50
2023/06/16 07:52:42;;;;;;;21.83;19.93;;;;;;;23.14;100.00;101603.63;4994727;28;20476;-47
2023/06/16 07:55:11;;;;;;;17.80;16.40;;;;;;;24.00;100.00;101604.22;4995121;28;20524;-48
2023/06/16 07:57:40;;;;;;;18.27;16.73;;;;;;;24.54;100.00;101596.59;4994244;28;20884;-49
2023/06/16 08:00:11;;;;;;;20.57;18.47;;;;;;;24.92;100.00;101596.13;4995081;28;20430;-45
2023/06/16 08:02:40;;;;;;;16.20;14.97;;;;;;;25.65;100.00;101593.97;4994690;28;20444;-47
2023/06/16 08:05:09;;;;;;;16.83;15.50;;;;;;;26.06;100.00;101591.94;4994778;28;20430;-46
2023/06/16 08:07:37;;;;;;;18.53;17.00;;;;;;;26.16;90.29;101592.75;4993921;28;21374;-48
2023/06/16 08:10:05;;;;;;;18.20;16.70;;;;;;;25.72;94.23;101581.66;4994418;28;20995;-45
2023/06/16 08:12:33;;;;;;;17.13;15.70;;;;;;;25.76;86.64;101585.47;4994637;28;20437;-48
2023/06/16 08:15:03;;;;;;;19.40;17.70;;;;;;;25.06;92.25;101580.06;4994432;28;20441;-44
2023/06/16 08:17:30;;;;;;;17.00;15.70;;;;;;;25.23;99.45;101573.25;4992461;28;21007;-49
2023/06/16 08:19:58;;;;;;;14.43;13.27;;;;;;;25.54;98.75;101568.56;4994466;28;20458;-43
2023/06/16 08:22:26;;;;;;;16.87;15.47;;;;;;;25.72;92.03;101567.97;4994310;28;20434;-44
2023/06/16 08:24:54;;;;;;;18.00;16.50;;;;;;;26.31;94.72;101568.06;4994545;28;20433;-45
2023/06/16 08:27:21;;;;;;;16.50;15.07;;;;;;;26.67;83.47;101559.66;4993869;28;20485;-43
2023/06/16 08:29:50;;;;;;;15.63;14.20;;;;;;;26.50;83.00;101560.03;4994417;28;21001;-46
2023/06/16 08:32:19;;;;;;;15.30;13.80;;;;;;;26.46;81.64;101558.16;4994454;28;20486;-46
2023/06/16 08:34:47;;;;;;;15.23;13.80;;;;;;;26.29;84.83;101553.84;4994355;28;20776;-44
2023/06/16 08:37:14;;;;;;;14.13;12.73;;;;;;;26.04;82.98;101561.34;4993560;28;20492;-44
2023/06/16 08:39:57;;;;;;;14.93;13.37;;;;;;;26.07;85.87;101550.66;4993739;28;20943;-42
2023/06/16 08:42:25;;;;;;;14.73;13.53;;;;;;;25.96;85.46;101553.69;4994015;28;20826;-49
2023/06/16 08:44:53;;;;;;;15.40;14.23;;;;;;;25.50;79.44;101553.03;4993921;28;20433;-46
2023/06/16 08:47:24;;;;;;;13.27;12.10;;;;;;;25.19;85.36;101552.19;4993420;28;20457;-47
2023/06/16 08:49:54;;;;;;;14.87;13.70;;;;;;;25.29;84.05;101552.22;4993902;28;20465;-43
2023/06/16 08:52:23;;;;;;;13.27;12.17;;;;;;;25.39;86.16;101554.91;4993646;28;20445;-45
2023/06/16 08:55:13;;;;;;;12.33;11.23;;;;;;;25.36;83.96;101549.19;4993754;28;20529;-46
2023/06/16 08:57:46;;;;;;;13.47;12.33;;;;;;;25.20;83.07;101551.13;4993133;28;20473;-44
2023/06/16 09:00:16;;;;;;;12.97;12.00;;;;;;;24.93;85.20;101554.13;4993571;28;20468;-43
2023/06/16 09:02:48;;;;;;;13.00;12.03;;;;;;;24.49;82.95;101552.94;4993789;28;20845;-48
2023/06/16 09:05:18;;;;;;;14.50;12.93;;;;;;;24.43;86.29;101557.53;4993604;28;20444;-46
2023/06/16 09:07:47;;;;;;;13.17;11.77;;;;;;;24.26;85.15;101547.94;4992718;28;20971;-46
2023/06/16 09:10:16;;;;;;;11.87;10.83;;;;;;;24.13;88.42;101557.47;4993434;28;20480;-48
2023/06/16 09:12:44;;;;;;;10.47;9.63;;;;;;;24.00;87.69;101560.63;4993322;28;20475;-43
2023/06/16 09:15:12;;;;;;;11.67;10.70;;;;;;;23.59;91.47;101552.28;4993621;28;20454;-44
2023/06/16 09:17:40;;;;;;;11.30;10.07;;;;;;;23.29;96.59;101548.47;4991963;28;20762;-48
2023/06/16 09:20:16;;;;;;;11.37;10.10;;;;;;;23.21;100.00;101547.06;4993540;28;20437;-46
2023/06/16 09:22:49;;;;;;;10.40;9.60;;;;;;;23.07;100.00;101538.53;4993128;28;20430;-45
2023/06/16 09:25:17;;;;;;;11.03;10.00;;;;;;;23.12;100.00;101533.13;4993478;28;20458;-46
2023/06/16 09:27:46;;;;;;;11.73;10.63;;;;;;;23.15;100.00;101520.88;4992758;28;20994;-45
2023/06/16 09:30:16;;;;;;;11.37;10.30;;;;;;;23.07;100.00;101533.09;4993196;28;20469;-48
2023/06/16 09:32:46;;;;;;;9.93;9.20;;;;;;;22.77;100.00;101532.00;4993051;28;20472;-49
2023/06/16 09:35:20;;;;;;;10.47;9.70;;;;;;;22.60;100.00;101537.53;4993073;28;20508;-47
2023/06/16 09:37:49;;;;;;;11.10;10.03;;;;;;;22.29;100.00;101543.69;4992818;28;20465;-50
2023/06/16 09:40:19;;;;;;;11.17;10.27;;;;;;;22.31;100.00;101555.94;4993310;28;20492;-48
2023/06/16 09:42:50;;;;;;;11.17;10.17;;;;;;;22.19;100.00;101559.91;4992927;28;20445;-47
2023/06/16 09:45:19;;;;;;;9.50;8.77;;;;;;;22.09;100.00;101555.16;4992970;28;20469;-47
2023/06/16 09:47:50;;;;;;;11.27;10.47;;;;;;;22.09;100.00;101552.44;4991175;28;20461;-47
2023/06/16 09:50:23;;;;;;;9.47;8.73;;;;;;;22.27;100.00;101543.97;4992885;28;20820;-46
2023/06/16 09:52:51;;;;;;;12.90;11.07;;;;;;;22.63;100.00;101536.19;4992639;28;20469;-47
2023/06/16 09:55:20;;;;;;;10.70;9.60;;;;;;;22.52;100.00;101536.06;4992706;28;20954;-49
2023/06/16 09:57:48;;;;;;;9.00;8.30;;;;;;;22.84;100.00;101538.06;4992324;28;20466;-44
2023/06/16 10:00:16;;;;;;;9.37;8.67;;;;;;;22.98;100.00;101536.53;4992686;28;20457;-46
2023/06/16 10:02:46;;;;;;;10.43;9.60;;;;;;;23.09;100.00;101530.91;4992413;28;20437;-45
2023/06/16 10:05:17;;;;;;;9.43;8.63;;;;;;;23.08;100.00;101523.84;4992905;28;20461;-47
2023/06/16 10:07:49;;;;;;;9.83;9.03;;;;;;;23.27;100.00;101532.41;4992230;28;20493;-45
2023/06/16 10:10:19;;;;;;;9.37;8.57;;;;;;;23.30;100.00;101529.16;4992701;28;20512;-47
2023/06/16 10:12:50;;;;;;;10.47;9.47;;;;;;;23.38;100.00;101522.41;4992407;28;20465;-51
2023/06/16 10:15:24;;;;;;;10.73;9.60;;;;;;;23.52;100.00;101521.72;4992765;28;20448;-45
2023/06/16 10:17:52;;;;;;;10.60;9.80;;;;;;;23.70;100.00;101515.00;4991915;28;20472;-47
2023/06/16 10:20:24;;;;;;;10.10;9.23;;;;;;;23.70;100.00;101512.28;4992684;28;20489;-50
2023/06/16 10:22:53;;;;;;;11.03;9.90;;;;;;;23.63;100.00;101509.78;4992486;28;20433;-48
2023/06/16 10:25:21;;;;;;;9.87;9.07;;;;;;;23.68;100.00;101512.53;4992445;28;20479;-48
2023/06/16 10:27:51;;;;;;;10.03;9.10;;;;;;;23.74;100.00;101512.59;4986951;28;20552;-52
2023/06/16 10:30:19;;;;;;;11.33;9.67;;;;;;;23.78;100.00;101511.78;4992016;28;20824;-46
2023/06/16 10:32:49;;;;;;;10.33;9.47;;;;;;;23.88;100.00;101506.38;4992315;28;20436;-45
2023/06/16 10:35:18;;;;;;;11.13;9.03;;;;;;;23.86;100.00;101508.56;4992282;28;20435;-49
2023/06/16 10:37:50;;;;;;;11.00;10.00;;;;;;;23.82;100.00;101506.63;4991962;28;20469;-46
2023/06/16 10:40:21;;;;;;;9.30;8.60;;;;;;;23.86;100.00;101500.38;4992666;28;20840;-45
2023/06/16 10:42:52;;;;;;;9.83;9.10;;;;;;;23.87;100.00;101499.28;4992374;28;20799;-47
2023/06/16 10:45:25;;;;;;;9.60;8.97;;;;;;;24.03;100.00;101500.16;4992463;28;20422;-46
2023/06/16 10:47:58;;;;;;;13.47;10.10;;;;;;;24.23;100.00;101500.25;4990640;28;21021;-46
2023/06/16 10:50:42;;;;;;;10.87;10.00;;;;;;;24.38;100.00;101496.75;4992029;28;20512;-46
2023/06/16 10:53:12;;;;;;;8.77;8.07;;;;;;;24.58;100.00;101499.53;4992215;28;20417;-48
2023/06/16 10:55:44;;;;;;;9.67;8.97;;;;;;;24.81;100.00;101493.56;4992173;28;20441;-46
2023/06/16 10:58:23;;;;;;;10.00;9.20;;;;;;;25.05;98.10;101500.09;4991444;28;21025;-48
2023/06/16 11:01:23;;;;;;;8.83;8.23;;;;;;;25.40;97.90;101492.94;4991752;28;20425;-49
2023/06/16 11:04:15;;;;;;;9.97;9.30;;;;;;;25.58;94.07;101484.16;4995760;28;20465;-47
2023/06/16 11:07:09;;;;;;;9.63;8.77;;;;;;;25.71;89.99;101487.13;4995586;28;20433;-47
2023/06/16 11:09:58;;;;;;;9.93;9.17;;;;;;;25.96;87.90;101483.47;4995338;28;20449;-47
2023/06/16 11:12:27;;;;;;;9.90;9.20;;;;;;;25.98;84.98;101477.72;4995354;28;20472;-47
2023/06/16 11:14:56;;;;;;;8.43;7.83;;;;;;;26.30;85.70;101476.19;4995422;28;20444;-50